KCBF

Council Bluffs Municipal Airport

Council Bluffs, Iowa, USA
METAR KCBF 201515Z AUTO 32015KT 10SM -SN OVC013 M09/M09 A3004 RMK AO2
Observed Flight Rules
Feb-20 @ 15:15 UTC (2 hours ago) Marginal Visual Flight Rules
Wind Visibility Clouds Conditions
320° at 15 knots 10 miles
  • Overcast at 1,300' AGL
  • Light Snow
Temperatures Readings
Current -9°C / 16°F
Dewpoint -9°C / 16°F
Humidity 100%
Altimeter 30.04" Hg
Pressure 1017 hPa
Elevation 382
METAR KCBF 201515Z AUTO 32015KT 10SM -SN OVC013 M09/M09 A3004 RMK AO2
Observed Flight Rules
Feb-20 @ 15:15 UTC
(2 hours ago)
MVFR
Wind Visibility
320° at 15 knots 10 miles
Clouds
  • Overcast at 1,300' AGL
Conditions
  • Light Snow
Temperature Dewpoint
-9°C / 16°F -9°C / 16°F
Humidity Altimeter Pressure
100% 30.04" Hg 1017 hPa